createdAt,value
2018-05-18T00:00:06.205Z,12.11
2018-05-18T00:02:32.116Z,12.07
2018-05-18T00:04:58.027Z,12.04
2018-05-18T00:07:23.911Z,12.02
2018-05-18T00:09:49.840Z,11.90
2018-05-18T00:12:15.748Z,11.88
2018-05-18T00:14:42.523Z,11.82
2018-05-18T00:17:08.490Z,11.83
2018-05-18T00:19:34.407Z,11.69
2018-05-18T00:22:00.567Z,11.62
2018-05-18T00:24:26.447Z,11.63
2018-05-18T00:26:52.407Z,11.64
2018-05-18T00:29:18.351Z,11.61
2018-05-18T00:31:44.276Z,11.55
2018-05-18T00:34:10.212Z,11.48
2018-05-18T00:36:36.171Z,11.47
2018-05-18T00:39:02.129Z,11.41
2018-05-18T00:41:28.056Z,11.47
2018-05-18T00:43:54.043Z,11.37
2018-05-18T00:46:19.928Z,11.36
2018-05-18T00:48:45.865Z,11.41
2018-05-18T00:51:15.621Z,11.50
2018-05-18T00:53:41.522Z,11.41
2018-05-18T00:56:08.809Z,11.32
2018-05-18T00:58:34.725Z,11.28
2018-05-18T01:01:03.498Z,11.36
2018-05-18T01:03:29.396Z,11.41
2018-05-18T01:05:55.311Z,11.43
2018-05-18T01:08:21.244Z,11.34
2018-05-18T01:10:47.115Z,11.32
2018-05-18T01:13:16.528Z,11.35
2018-05-18T01:15:42.432Z,11.28
2018-05-18T01:18:09.689Z,11.22
2018-05-18T01:20:35.659Z,11.19
2018-05-18T01:23:04.672Z,11.21
2018-05-18T01:25:30.666Z,11.18
2018-05-18T01:27:59.485Z,11.22
2018-05-18T01:30:25.339Z,11.20
2018-05-18T01:32:54.707Z,11.05
2018-05-18T01:35:20.638Z,11.04
2018-05-18T01:37:49.914Z,11.03
2018-05-18T01:40:15.816Z,11.05
2018-05-18T01:42:41.747Z,11.06
2018-05-18T01:45:07.685Z,11.10
2018-05-18T01:47:33.618Z,11.11
2018-05-18T01:50:00.674Z,11.05
2018-05-18T01:52:26.612Z,11.02
2018-05-18T01:54:55.546Z,10.98
2018-05-18T01:57:21.464Z,10.88
2018-05-18T01:59:50.836Z,10.78
2018-05-18T02:02:16.785Z,10.69
2018-05-18T02:04:46.261Z,10.69
2018-05-18T02:07:12.183Z,10.68
2018-05-18T02:09:39.275Z,10.70
2018-05-18T02:12:05.208Z,10.71
2018-05-18T02:14:35.291Z,10.69
2018-05-18T02:17:01.209Z,10.67
2018-05-18T02:19:27.119Z,10.60
2018-05-18T02:21:53.047Z,10.55
2018-05-18T02:24:18.976Z,10.58
2018-05-18T02:26:46.280Z,10.59
2018-05-18T02:29:12.202Z,10.60
2018-05-18T02:31:41.268Z,10.55
2018-05-18T02:34:07.188Z,10.52
2018-05-18T02:36:36.204Z,10.27
2018-05-18T02:39:02.176Z,10.00
2018-05-18T02:41:31.265Z,9.85
2018-05-18T02:43:57.191Z,9.80
2018-05-18T02:46:26.234Z,9.69
2018-05-18T02:48:52.137Z,9.68
2018-05-18T02:51:19.362Z,9.64
2018-05-18T02:53:45.219Z,9.53
2018-05-18T02:56:11.217Z,9.39
2018-05-18T02:58:37.092Z,9.34
2018-05-18T03:01:02.995Z,9.37
2018-05-18T03:03:30.836Z,9.31
2018-05-18T03:05:56.861Z,9.30
2018-05-18T03:08:25.914Z,9.31
2018-05-18T03:10:51.804Z,9.38
2018-05-18T03:13:20.475Z,9.35
2018-05-18T03:15:46.366Z,9.22
2018-05-18T03:18:15.359Z,9.13
2018-05-18T03:20:41.260Z,9.15
2018-05-18T03:23:09.967Z,9.18
2018-05-18T03:25:35.865Z,9.21
2018-05-18T03:28:04.729Z,9.20
2018-05-18T03:30:30.626Z,9.26
2018-05-18T03:32:57.412Z,9.24
2018-05-18T03:35:23.423Z,9.16
2018-05-18T03:37:49.860Z,9.14
2018-05-18T03:40:16.600Z,9.20
2018-05-18T03:42:42.511Z,9.19
2018-05-18T03:45:11.432Z,9.14
2018-05-18T03:47:37.408Z,9.21
2018-05-18T03:50:07.143Z,9.19
2018-05-18T03:52:33.031Z,9.14
2018-05-18T03:55:00.947Z,9.12
2018-05-18T03:57:27.466Z,9.10
2018-05-18T03:59:56.635Z,9.15
2018-05-18T04:02:34.716Z,9.15
2018-05-18T04:05:13.034Z,9.23
2018-05-18T04:07:46.818Z,9.26
2018-05-18T04:10:27.023Z,9.22
2018-05-18T04:12:52.951Z,9.29
2018-05-18T04:15:18.885Z,9.30
2018-05-18T04:17:44.806Z,9.36
2018-05-18T04:20:11.761Z,9.36
2018-05-18T04:22:37.655Z,9.37
2018-05-18T04:25:03.531Z,9.27
2018-05-18T04:27:29.455Z,9.11
2018-05-18T04:29:55.365Z,9.40
2018-05-18T04:32:21.255Z,9.38
2018-05-18T04:34:47.214Z,9.44
2018-05-18T04:37:13.144Z,9.13
2018-05-18T04:39:39.060Z,9.45
2018-05-18T04:42:04.969Z,9.54
2018-05-18T04:44:30.879Z,9.58
2018-05-18T04:46:56.773Z,9.61
2018-05-18T04:49:22.691Z,9.73
2018-05-18T04:51:48.594Z,9.76
2018-05-18T04:54:14.539Z,9.79
2018-05-18T04:56:40.441Z,9.84
2018-05-18T04:59:06.386Z,9.83
2018-05-18T05:01:32.279Z,9.80
2018-05-18T05:03:58.282Z,9.79
2018-05-18T05:06:24.187Z,9.84
2018-05-18T05:08:50.104Z,9.98
2018-05-18T05:11:16.027Z,10.02
2018-05-18T05:13:41.935Z,9.98
2018-05-18T05:16:07.860Z,9.88
2018-05-18T05:18:33.766Z,10.02
2018-05-18T05:20:59.676Z,10.04
2018-05-18T05:23:25.590Z,10.12
2018-05-18T05:25:51.499Z,10.24
2018-05-18T05:28:17.420Z,10.27
2018-05-18T05:30:43.369Z,10.34
2018-05-18T05:33:09.273Z,10.36
2018-05-18T05:35:35.175Z,10.46
2018-05-18T05:38:01.070Z,10.53
2018-05-18T05:40:26.979Z,10.72
2018-05-18T05:42:52.899Z,10.67
2018-05-18T05:45:19.008Z,10.73
2018-05-18T05:47:44.916Z,10.79
2018-05-18T05:50:10.931Z,10.96
2018-05-18T05:52:36.826Z,11.07
2018-05-18T05:55:06.349Z,11.18
2018-05-18T05:57:32.252Z,11.36
2018-05-18T05:59:58.147Z,11.52
2018-05-18T06:02:24.103Z,11.52
2018-05-18T06:04:50.043Z,11.65
2018-05-18T06:07:17.899Z,11.83
2018-05-18T06:09:43.820Z,11.92
2018-05-18T06:12:12.858Z,12.10
2018-05-18T06:14:38.782Z,12.27
2018-05-18T06:17:07.697Z,12.36
2018-05-18T06:19:33.687Z,12.45
2018-05-18T06:22:03.471Z,12.63
2018-05-18T07:52:25.368Z,17.11
2018-05-18T07:54:51.285Z,16.89
2018-05-18T07:57:17.681Z,17.15
2018-05-18T07:59:43.585Z,17.48
2018-05-18T08:02:09.472Z,17.91
2018-05-18T08:04:35.389Z,17.62
2018-05-18T08:07:01.301Z,17.64
2018-05-18T08:09:27.278Z,18.05
2018-05-18T08:11:53.224Z,18.35
2018-05-18T08:14:19.128Z,18.55
2018-05-18T08:16:45.133Z,18.26
2018-05-18T08:19:11.049Z,18.21
2018-05-18T08:21:37.068Z,18.44
2018-05-18T08:24:02.952Z,18.71
2018-05-18T08:26:29.174Z,18.87
2018-05-18T08:29:07.363Z,18.95
2018-05-18T08:31:33.300Z,18.86
2018-05-18T08:34:00.102Z,18.84
2018-05-18T08:36:26.261Z,18.99
2018-05-18T08:39:13.596Z,18.89
2018-05-18T08:41:39.484Z,19.04
2018-05-18T08:44:08.376Z,19.24
2018-05-18T08:46:34.301Z,19.37
2018-05-18T08:49:03.578Z,19.73
2018-05-18T08:51:29.533Z,19.79
2018-05-18T08:53:59.384Z,20.06
2018-05-18T08:56:25.318Z,20.10
2018-05-18T08:58:52.448Z,20.08
2018-05-18T09:01:18.380Z,20.14
2018-05-18T09:03:44.304Z,19.25
2018-05-18T09:06:10.214Z,19.29
2018-05-18T09:08:36.178Z,19.73
2018-05-18T09:11:05.563Z,19.59
2018-05-18T09:13:31.507Z,19.89
2018-05-18T09:16:00.591Z,20.02
2018-05-18T09:18:26.471Z,19.33
2018-05-18T09:20:54.262Z,19.58
2018-05-18T09:23:20.273Z,19.50
2018-05-18T09:25:49.863Z,19.37
2018-05-18T09:28:15.763Z,19.85
2018-05-18T09:30:42.782Z,20.20
2018-05-18T09:33:08.703Z,20.48
2018-05-18T09:35:38.323Z,20.80
2018-05-18T09:38:04.204Z,21.21
2018-05-18T09:40:30.110Z,21.57
2018-05-18T09:42:56.049Z,21.37
2018-05-18T09:45:22.000Z,21.70
2018-05-18T09:47:49.328Z,22.03
2018-05-18T09:50:15.236Z,21.89
2018-05-18T09:52:45.123Z,22.04
2018-05-18T09:55:11.238Z,21.66
2018-05-18T09:57:38.843Z,21.60
2018-05-18T10:00:04.798Z,21.83
2018-05-18T10:02:34.373Z,22.25
2018-05-18T10:05:00.293Z,22.44
2018-05-18T10:07:29.285Z,22.13
2018-05-18T10:09:55.240Z,22.10
2018-05-18T10:12:22.922Z,22.36
2018-05-18T10:14:49.519Z,22.67
2018-05-18T10:17:15.445Z,22.71
2018-05-18T10:19:41.389Z,22.54
2018-05-18T10:22:07.383Z,22.35
2018-05-18T10:24:34.726Z,21.90
2018-05-18T10:27:00.698Z,22.08
2018-05-18T10:29:29.552Z,22.32
2018-05-18T10:31:55.488Z,22.87
2018-05-18T10:34:24.269Z,23.27
2018-05-18T10:36:50.145Z,23.52
2018-05-18T10:39:20.285Z,23.39
2018-05-18T10:41:46.233Z,23.18
2018-05-18T10:44:14.016Z,23.28
2018-05-18T10:46:39.954Z,22.56
2018-05-18T10:49:09.083Z,21.88
2018-05-18T10:51:35.008Z,21.73
2018-05-18T10:54:00.934Z,22.58
2018-05-18T10:56:26.867Z,23.30
2018-05-18T10:58:56.767Z,23.30
2018-05-18T11:01:22.724Z,23.73
2018-05-18T11:03:48.628Z,24.15
2018-05-18T11:06:14.595Z,24.12
2018-05-18T11:08:40.543Z,23.61
2018-05-18T11:11:10.288Z,23.86
2018-05-18T11:13:36.164Z,23.54
2018-05-18T11:16:05.147Z,23.76
2018-05-18T11:18:31.054Z,23.94
2018-05-18T11:20:58.952Z,23.90
2018-05-18T11:23:24.954Z,24.17
2018-05-18T11:25:53.686Z,23.93
2018-05-18T11:28:19.627Z,22.88
2018-05-18T11:30:45.547Z,22.49
2018-05-18T11:33:11.542Z,22.81
2018-05-18T11:35:38.322Z,23.30
2018-05-18T11:38:05.685Z,23.74
2018-05-18T11:40:31.584Z,24.22
2018-05-18T11:43:01.304Z,24.63
2018-05-18T11:45:40.844Z,24.44
2018-05-18T11:48:06.799Z,24.48
2018-05-18T11:50:32.983Z,24.11
2018-05-18T11:52:58.963Z,24.45
2018-05-18T11:55:24.902Z,24.87
2018-05-18T11:57:50.780Z,25.00
2018-05-18T12:00:16.725Z,25.29
2018-05-18T12:02:42.820Z,25.12
2018-05-18T12:05:08.728Z,24.97
2018-05-18T12:07:34.748Z,25.18
2018-05-18T12:10:00.676Z,25.47
2018-05-18T12:12:26.616Z,24.83
2018-05-18T12:14:52.998Z,24.69
2018-05-18T12:17:18.949Z,25.15
2018-05-18T12:19:45.361Z,25.18
2018-05-18T12:22:11.359Z,24.88
2018-05-18T12:24:40.389Z,25.18
2018-05-18T12:27:06.307Z,24.98
2018-05-18T12:29:35.567Z,24.54
2018-05-18T12:32:01.523Z,24.45
2018-05-18T12:34:30.619Z,24.04
2018-05-18T12:36:56.529Z,24.48
2018-05-18T12:39:24.481Z,24.71
2018-05-18T12:41:50.394Z,24.93
2018-05-18T12:44:16.362Z,25.45
2018-05-18T12:46:42.372Z,25.98
2018-05-18T12:54:53.531Z,26.19
2018-05-18T12:57:19.473Z,26.17
2018-05-18T12:59:45.455Z,26.19
2018-05-18T13:02:11.362Z,26.22
2018-05-18T13:04:37.277Z,25.65
2018-05-18T13:07:03.197Z,25.63
2018-05-18T13:09:29.139Z,25.47
2018-05-18T13:11:55.157Z,25.95
2018-05-18T13:14:21.161Z,26.15
2018-05-18T13:16:47.114Z,26.26
2018-05-18T13:19:13.071Z,25.68
2018-05-18T13:21:39.016Z,25.58
2018-05-18T13:24:05.779Z,24.79
2018-05-18T13:26:31.668Z,24.02
2018-05-18T13:28:57.730Z,23.70
2018-05-18T13:31:23.746Z,24.50
2018-05-18T13:33:49.663Z,25.14
2018-05-18T13:36:15.589Z,25.18
2018-05-18T13:38:41.802Z,25.53
2018-05-18T13:41:07.732Z,26.02
2018-05-18T13:43:33.753Z,26.33
2018-05-18T13:45:59.644Z,26.76
2018-05-18T13:48:25.592Z,27.00
2018-05-18T13:50:51.523Z,27.14
2018-05-18T13:53:17.477Z,27.20
2018-05-18T13:55:43.434Z,27.09
2018-05-18T13:58:09.371Z,26.84
2018-05-18T14:00:35.297Z,26.60
2018-05-18T14:03:01.209Z,26.58
2018-05-18T14:05:27.152Z,26.58
2018-05-18T14:07:53.058Z,26.34
2018-05-18T14:10:19.018Z,26.02
2018-05-18T14:12:44.942Z,25.59
2018-05-18T14:15:10.925Z,25.45
2018-05-18T14:17:36.865Z,25.17
2018-05-18T14:20:02.805Z,24.96
2018-05-18T14:22:28.762Z,25.34
2018-05-18T14:24:54.896Z,25.77
2018-05-18T14:27:20.812Z,25.91
2018-05-18T14:29:46.736Z,25.98
2018-05-18T14:32:12.680Z,26.23
2018-05-18T14:34:38.633Z,26.28
2018-05-18T14:37:04.556Z,26.71
2018-05-18T14:39:30.461Z,26.70
2018-05-18T14:41:56.403Z,26.34
2018-05-18T14:44:22.362Z,26.06
2018-05-18T14:46:48.301Z,25.68
2018-05-18T14:49:14.234Z,25.96
2018-05-18T14:51:41.278Z,26.29
2018-05-18T14:54:07.256Z,26.29
2018-05-18T14:56:37.081Z,26.47
2018-05-18T14:59:03.050Z,26.37
2018-05-18T15:01:30.921Z,26.09
2018-05-18T15:03:56.819Z,26.01
2018-05-18T15:06:26.372Z,26.10
2018-05-18T15:08:52.292Z,25.98
2018-05-18T15:11:18.241Z,25.83
2018-05-18T15:13:44.154Z,25.95
2018-05-18T15:16:10.136Z,26.21
2018-05-18T15:18:38.504Z,26.29
2018-05-18T15:21:04.421Z,26.10
2018-05-18T15:23:32.184Z,25.89
2018-05-18T15:25:58.116Z,25.79
2018-05-18T15:28:28.411Z,25.11
2018-05-18T15:30:54.302Z,24.91
2018-05-18T15:33:21.998Z,24.82
2018-05-18T15:35:47.914Z,24.46
2018-05-18T15:38:17.699Z,24.27
2018-05-18T15:40:43.615Z,24.25
2018-05-18T15:43:12.524Z,24.12
2018-05-18T15:45:38.444Z,24.25
2018-05-18T15:48:04.369Z,24.26
2018-05-18T15:50:30.370Z,23.91
2018-05-18T15:52:56.314Z,23.61
2018-05-18T15:55:22.735Z,23.75
2018-05-18T15:57:48.661Z,23.95
2018-05-18T16:00:17.692Z,23.70
2018-05-18T16:02:43.587Z,23.89
2018-05-18T16:05:13.336Z,23.52
2018-05-18T16:07:39.242Z,23.63
2018-05-18T16:10:07.114Z,23.58
2018-05-18T16:12:33.050Z,23.76
2018-05-18T16:15:02.101Z,23.67
2018-05-18T16:17:28.049Z,23.68
2018-05-18T16:19:57.222Z,23.59
2018-05-18T16:22:23.154Z,23.59
2018-05-18T16:24:49.107Z,23.48
2018-05-18T16:27:15.064Z,23.12
2018-05-18T16:29:40.959Z,22.94
2018-05-18T16:32:08.219Z,22.96
2018-05-18T16:34:34.207Z,23.02
2018-05-18T16:37:03.132Z,22.87
2018-05-18T16:39:29.079Z,22.87
2018-05-18T16:41:58.938Z,22.74
2018-05-18T16:44:24.857Z,22.20
2018-05-18T16:46:52.009Z,22.19
2018-05-18T16:49:17.953Z,22.21
2018-05-18T16:51:47.419Z,22.35
2018-05-18T16:54:13.422Z,22.23
2018-05-18T16:56:42.459Z,22.28
2018-05-18T16:59:08.428Z,22.11
2018-05-18T17:01:34.360Z,21.76
2018-05-18T17:04:00.285Z,21.54
2018-05-18T17:06:26.233Z,21.54
2018-05-18T17:08:53.331Z,21.54
2018-05-18T17:11:19.297Z,21.47
2018-05-18T17:13:48.855Z,21.38
2018-05-18T17:16:14.782Z,21.31
2018-05-18T17:18:42.737Z,21.32
2018-05-18T17:21:08.662Z,21.26
2018-05-18T17:23:37.186Z,20.75
2018-05-18T17:26:03.211Z,20.86
2018-05-18T17:28:33.067Z,20.55
2018-05-18T17:30:59.000Z,20.48
2018-05-18T17:33:26.870Z,20.39
2018-05-18T17:35:52.791Z,20.29
2018-05-18T17:38:18.711Z,20.27
2018-05-18T17:40:44.639Z,20.26
2018-05-18T17:43:10.656Z,20.06
2018-05-18T17:45:39.605Z,20.00
2018-05-18T17:48:05.595Z,19.92
2018-05-18T17:50:33.465Z,19.80
2018-05-18T17:52:59.462Z,19.73
2018-05-18T17:55:28.938Z,19.63
2018-05-18T17:57:54.864Z,19.55
2018-05-18T18:00:23.890Z,19.52
2018-05-18T18:02:49.794Z,19.39
2018-05-18T18:05:17.512Z,19.15
2018-05-18T18:07:43.454Z,19.08
2018-05-18T18:10:12.301Z,19.05
2018-05-18T18:12:38.232Z,19.00
2018-05-18T18:15:04.189Z,18.80
2018-05-18T18:17:30.113Z,18.76
2018-05-18T18:19:56.046Z,18.63
2018-05-18T18:22:25.335Z,18.45
2018-05-18T18:24:51.237Z,18.39
2018-05-18T18:27:19.102Z,18.41
2018-05-18T18:29:45.024Z,18.39
2018-05-18T18:32:14.756Z,18.26
2018-05-18T18:34:40.678Z,18.09
2018-05-18T18:37:08.531Z,18.00
2018-05-18T18:39:34.482Z,17.82
2018-05-18T18:42:04.064Z,17.83
2018-05-18T18:50:16.664Z,17.47
2018-05-18T18:52:42.605Z,17.32
2018-05-18T18:55:08.578Z,17.22
2018-05-18T18:57:34.494Z,17.11
2018-05-18T19:00:00.435Z,17.22
2018-05-18T19:02:26.364Z,17.17
2018-05-18T19:04:52.279Z,17.06
2018-05-18T19:07:18.210Z,16.97
2018-05-18T19:09:44.116Z,16.86
2018-05-18T19:12:10.029Z,16.78
2018-05-18T19:14:36.005Z,16.74
2018-05-18T19:17:02.488Z,16.61
2018-05-18T19:19:28.438Z,16.52
2018-05-18T19:21:54.380Z,16.31
2018-05-18T19:24:29.743Z,16.33
2018-05-18T19:27:03.598Z,16.26
2018-05-18T19:29:32.843Z,16.25
2018-05-18T19:31:59.653Z,16.11
2018-05-18T19:34:25.515Z,16.04
2018-05-18T19:36:54.470Z,15.90
2018-05-18T19:39:24.956Z,15.90
2018-05-18T19:41:51.476Z,15.98
2018-05-18T19:44:27.971Z,15.89
2018-05-18T19:46:55.410Z,15.70
2018-05-18T19:49:21.315Z,15.62
2018-05-18T19:51:50.123Z,15.65
2018-05-18T19:54:17.010Z,15.61
2018-05-18T19:56:46.285Z,15.54
2018-05-18T19:59:12.426Z,15.44
2018-05-18T20:01:40.034Z,15.26
2018-05-18T20:04:14.767Z,15.29
2018-05-18T20:06:40.750Z,15.32
2018-05-18T20:09:06.678Z,15.29
2018-05-18T20:11:32.603Z,15.13
2018-05-18T20:14:00.857Z,15.10
2018-05-18T20:16:26.773Z,15.18
2018-05-18T20:18:52.747Z,15.12
2018-05-18T20:21:18.722Z,15.02
2018-05-18T20:23:44.660Z,14.94
2018-05-18T20:26:34.343Z,14.91
2018-05-18T20:29:10.549Z,14.88
2018-05-18T20:31:46.717Z,14.81
2018-05-18T20:34:13.644Z,14.61
2018-05-18T20:36:45.733Z,14.48
2018-05-18T20:39:22.982Z,14.40
2018-05-18T20:41:53.871Z,14.40
2018-05-18T20:44:30.754Z,14.52
2018-05-18T20:47:00.977Z,14.60
2018-05-18T20:49:27.010Z,14.54
2018-05-18T20:52:03.446Z,14.43
2018-05-18T20:54:31.043Z,14.42
2018-05-18T20:57:00.510Z,14.50
2018-05-18T20:59:32.761Z,14.38
2018-05-18T21:02:01.295Z,14.23
2018-05-18T21:07:05.241Z,13.93
2018-05-18T21:12:12.360Z,14.11
2018-05-18T21:14:38.291Z,14.16
2018-05-18T21:17:04.212Z,14.18
2018-05-18T21:20:07.954Z,14.14
2018-05-18T21:22:37.732Z,14.12
2018-05-18T21:25:05.620Z,14.09
2018-05-18T21:27:31.575Z,14.15
2018-05-18T21:29:57.497Z,14.09
2018-05-18T21:32:23.453Z,13.98
2018-05-18T21:34:49.369Z,13.98
2018-05-18T21:37:15.276Z,13.94
2018-05-18T21:39:41.196Z,13.91
2018-05-18T21:42:08.494Z,13.88
2018-05-18T21:44:43.695Z,13.89
2018-05-18T21:47:10.613Z,13.78
2018-05-18T21:49:36.519Z,13.79
2018-05-18T21:52:02.509Z,13.77
2018-05-18T21:57:17.348Z,13.63
2018-05-18T21:59:48.755Z,13.60
2018-05-18T22:02:15.040Z,13.62
2018-05-18T22:04:40.951Z,13.61
2018-05-18T22:07:06.883Z,13.55
2018-05-18T22:09:32.753Z,13.57
2018-05-18T22:11:58.673Z,13.47
2018-05-18T22:14:24.637Z,13.33
2018-05-18T22:16:50.536Z,13.33
2018-05-18T22:19:16.473Z,13.37
2018-05-18T22:21:42.380Z,13.35
2018-05-18T22:24:08.333Z,13.30
2018-05-18T22:26:34.280Z,13.31
2018-05-18T22:29:00.185Z,13.31
2018-05-18T22:31:26.075Z,13.29
2018-05-18T22:33:51.996Z,13.22
2018-05-18T22:36:17.891Z,13.21
2018-05-18T22:38:43.848Z,13.26
2018-05-18T22:41:09.776Z,13.25
2018-05-18T22:43:35.699Z,13.22
2018-05-18T22:46:01.596Z,13.14
2018-05-18T22:48:27.551Z,13.04
2018-05-18T22:50:53.511Z,12.86
2018-05-18T22:53:19.447Z,12.87
2018-05-18T22:55:45.488Z,12.90
2018-05-18T22:58:11.415Z,12.81
2018-05-18T23:00:37.378Z,12.89
2018-05-18T23:03:03.359Z,12.73
2018-05-18T23:05:29.277Z,12.78
2018-05-18T23:07:55.228Z,12.73
2018-05-18T23:10:21.173Z,12.78
2018-05-18T23:12:47.097Z,12.80
2018-05-18T23:15:16.984Z,12.86
2018-05-18T23:17:43.031Z,12.80
2018-05-18T23:20:10.940Z,12.82
2018-05-18T23:22:36.935Z,12.77
2018-05-18T23:25:05.950Z,12.80
2018-05-18T23:27:31.860Z,12.80
2018-05-18T23:29:58.202Z,12.83
2018-05-18T23:32:24.121Z,12.83
2018-05-18T23:34:51.590Z,12.76
2018-05-18T23:37:17.826Z,12.72
2018-05-18T23:39:43.769Z,12.73
2018-05-18T23:42:11.608Z,12.66
2018-05-18T23:44:37.556Z,12.57
2018-05-18T23:47:06.660Z,12.61
2018-05-18T23:49:32.626Z,12.63
2018-05-18T23:52:01.644Z,12.61
2018-05-18T23:54:27.725Z,12.54
2018-05-18T23:56:55.292Z,12.61
2018-05-18T23:59:21.239Z,12.61
